Time;durP1;ratioP1;P1;durP2;ratioP2;P2;SDS_P1;SDS_P2;PMS_P1;PMS_P2;Temp;Humidity;BMP_temperature;BMP_pressure;BME280_temperature;BME280_humidity;BME280_pressure;Samples;Min_cycle;Max_cycle;Signal;HPM_P1;HPM_P2
2021/09/14 00:01:58;;;;;;;1.98;1.22;;;;;;;12.76;67.19;101250.73;1708140;82;21508;-82
2021/09/14 00:04:24;;;;;;;1.50;1.30;;;;;;;12.72;67.21;101250.80;1719053;82;22218;-82
2021/09/14 00:06:50;;;;;;;1.72;0.90;;;;;;;12.69;67.24;101247.81;1692418;83;21499;-82
2021/09/14 00:09:16;;;;;;;3.85;1.35;;;;;;;12.64;67.21;101248.76;1710734;83;21564;-82
2021/09/14 00:11:43;;;;;;;1.10;1.00;;;;;;;12.57;67.22;101248.84;1701854;83;21499;-82
2021/09/14 00:14:09;;;;;;;1.25;1.00;;;;;;;12.52;67.27;101247.19;1685254;83;21055;-82
2021/09/14 00:16:35;;;;;;;2.85;1.20;;;;;;;12.44;67.23;101249.92;1685205;84;21540;-82
2021/09/14 00:19:05;;;;;;;2.92;1.70;;;;;;;12.38;67.29;101247.84;1690099;83;21452;-82
2021/09/14 00:21:31;;;;;;;1.98;1.22;;;;;;;12.34;67.39;101245.73;1685095;84;21063;-82
2021/09/14 00:23:58;;;;;;;4.70;1.65;;;;;;;12.30;67.41;101245.80;1686026;83;21527;-82
2021/09/14 00:26:36;;;;;;;2.70;1.55;;;;;;;12.27;67.43;101247.98;1713360;83;21857;-82
2021/09/14 00:29:03;;;;;;;3.52;1.20;;;;;;;12.22;67.44;101245.45;1713799;83;21485;-82
2021/09/14 00:31:30;;;;;;;2.17;1.40;;;;;;;12.18;67.48;101242.91;1709423;83;24040;-82
2021/09/14 00:33:58;;;;;;;1.87;1.20;;;;;;;12.14;67.47;101245.98;1706282;82;21540;-82
2021/09/14 00:36:25;;;;;;;1.10;0.90;;;;;;;12.09;67.50;101238.70;1705086;83;21586;-82
2021/09/14 00:38:51;;;;;;;4.12;1.20;;;;;;;12.05;67.48;101240.05;1699149;83;22179;-82
2021/09/14 00:41:18;;;;;;;1.72;1.22;;;;;;;11.99;67.53;101241.41;1684947;84;21480;-82
2021/09/14 00:44:00;;;;;;;1.57;1.47;;;;;;;11.95;67.57;101232.85;1685222;84;20929;-83
2021/09/14 00:46:29;;;;;;;4.15;1.40;;;;;;;11.89;67.58;101232.48;1697097;83;21580;-82
2021/09/14 00:48:57;;;;;;;2.12;1.30;;;;;;;11.84;67.59;101237.30;1656875;83;40519;-82
2021/09/14 00:51:24;;;;;;;1.10;1.00;;;;;;;11.78;67.61;101235.62;1684999;83;21028;-82
2021/09/14 00:53:57;;;;;;;2.75;1.40;;;;;;;11.75;67.67;101229.59;1695667;83;21039;-82
2021/09/14 00:56:24;;;;;;;2.15;1.45;;;;;;;11.71;67.68;101232.65;1709380;83;21523;-82
2021/09/14 00:58:50;;;;;;;1.70;1.60;;;;;;;11.68;67.76;101230.53;1709761;83;21385;-82
2021/09/14 01:01:18;;;;;;;1.65;1.45;;;;;;;11.64;67.79;101235.32;1706863;83;21004;-82
2021/09/14 01:03:46;;;;;;;1.92;1.82;;;;;;;11.61;67.84;101228.44;1684764;82;21521;-82
2021/09/14 01:06:12;;;;;;;1.80;1.47;;;;;;;11.58;67.87;101231.06;1697871;83;21448;-82
2021/09/14 01:08:40;;;;;;;1.80;1.47;;;;;;;11.56;67.95;101237.98;1708877;83;21571;-82
2021/09/14 01:11:07;;;;;;;2.62;1.52;;;;;;;11.54;67.98;101234.55;1709681;83;21539;-82
2021/09/14 01:13:34;;;;;;;1.52;1.42;;;;;;;11.52;68.01;101235.86;1700468;82;21476;-82
2021/09/14 01:16:06;;;;;;;1.80;1.70;;;;;;;11.52;68.10;101236.30;1689032;83;20944;-82
2021/09/14 01:18:33;;;;;;;3.75;1.30;;;;;;;11.52;68.13;101240.19;1680473;84;21544;-82
2021/09/14 01:21:00;;;;;;;3.12;1.67;;;;;;;11.54;68.21;101238.44;1681615;83;21139;-82
2021/09/14 01:23:26;;;;;;;2.30;1.42;;;;;;;11.59;68.23;101239.25;1698812;83;21055;-82
2021/09/14 01:25:53;;;;;;;1.60;1.50;;;;;;;11.61;68.26;101238.80;1681543;84;21056;-82
2021/09/14 01:28:19;;;;;;;2.25;1.60;;;;;;;11.64;68.26;101236.62;1689302;83;21353;-82
2021/09/14 01:30:46;;;;;;;2.22;1.72;;;;;;;11.66;68.34;101244.80;1684046;83;20979;-82
2021/09/14 01:33:15;;;;;;;2.98;1.55;;;;;;;11.70;68.36;101241.73;1706067;82;21048;-82
2021/09/14 01:35:43;;;;;;;1.60;1.45;;;;;;;11.73;68.44;101244.30;1739316;82;21008;-82
2021/09/14 01:38:10;;;;;;;2.08;1.87;;;;;;;11.79;68.46;101246.85;1725480;82;21021;-82
2021/09/14 01:40:37;;;;;;;5.37;1.90;;;;;;;11.83;68.51;101250.69;1681075;83;21043;-82
2021/09/14 01:43:07;;;;;;;3.87;2.30;;;;;;;11.88;68.55;101241.57;1682927;83;21391;-82
2021/09/14 01:45:34;;;;;;;3.17;1.95;;;;;;;11.93;68.57;101237.19;1687930;83;21008;-82
2021/09/14 01:48:01;;;;;;;7.85;4.05;;;;;;;11.98;68.66;101231.92;1697572;83;21039;-82
2021/09/14 01:50:30;;;;;;;7.60;3.47;;;;;;;12.01;68.69;101230.16;1709660;83;21024;-82
2021/09/14 01:53:00;;;;;;;5.00;3.00;;;;;;;12.06;68.69;101241.33;1703658;83;21048;-82
2021/09/14 01:55:25;;;;;;;4.42;3.25;;;;;;;12.07;68.75;101239.16;1704092;82;21079;-82
2021/09/14 01:57:52;;;;;;;5.47;3.50;;;;;;;12.08;68.75;101236.98;1693313;83;21059;-82
2021/09/14 02:00:22;;;;;;;7.70;3.70;;;;;;;12.10;68.79;101233.08;1681285;83;21091;-82
2021/09/14 02:08:10;;;;;;;3.95;2.90;;;;;;;12.22;69.01;101238.97;1686846;82;20979;-82
2021/09/14 02:29:53;;;;;;;5.80;3.55;;;;;;;12.40;69.22;101228.80;1691908;83;21015;-82
2021/09/14 02:40:50;;;;;;;6.62;5.05;;;;;;;12.57;69.40;101235.02;1681152;83;21374;-82
2021/09/14 02:43:16;;;;;;;7.47;5.22;;;;;;;12.57;69.45;101234.58;1678572;83;21092;-82
2021/09/14 02:59:06;;;;;;;4.37;3.85;;;;;;;12.66;69.73;101244.41;1703108;83;21088;-82
2021/09/14 03:01:33;;;;;;;5.22;4.25;;;;;;;12.69;69.80;101243.92;1693031;83;21103;-82
2021/09/14 03:03:59;;;;;;;6.20;4.75;;;;;;;12.73;69.82;101240.41;1727780;82;21040;-82
2021/09/14 03:06:25;;;;;;;10.63;5.47;;;;;;;12.77;69.86;101239.92;1704382;81;21044;-82
2021/09/14 03:08:52;;;;;;;7.85;5.87;;;;;;;12.79;69.87;101239.02;1709902;83;21036;-82
2021/09/14 03:11:20;;;;;;;7.37;5.67;;;;;;;12.80;69.90;101239.43;1705685;83;21048;-82
2021/09/14 03:13:48;;;;;;;8.10;6.20;;;;;;;12.81;69.91;101238.55;1703001;83;20898;-82
2021/09/14 03:16:15;;;;;;;9.98;6.42;;;;;;;12.84;69.99;101242.84;1696442;83;21407;-82
2021/09/14 03:18:42;;;;;;;11.35;6.03;;;;;;;12.87;70.03;101240.20;1681274;83;21544;-82
2021/09/14 03:21:12;;;;;;;11.28;6.30;;;;;;;12.91;70.04;101236.67;1681178;83;21119;-82
2021/09/14 03:23:39;;;;;;;7.75;5.62;;;;;;;12.95;70.07;101238.34;1697617;82;21043;-82
2021/09/14 03:26:05;;;;;;;;;;;;;;;12.98;70.11;101239.59;1688948;83;21064;-82
2021/09/14 03:28:32;;;;;;;11.35;5.72;;;;;;;13.02;70.49;101238.62;1710019;83;20182;-82
2021/09/14 03:30:58;;;;;;;9.95;6.17;;;;;;;13.03;70.12;101233.00;1709977;83;21041;-82
2021/09/14 03:33:24;;;;;;;6.22;5.65;;;;;;;13.02;70.14;101232.14;1705411;82;21099;-82
2021/09/14 03:35:57;;;;;;;9.45;5.87;;;;;;;13.03;70.21;101231.70;1680998;83;20937;-82
2021/09/14 03:38:24;;;;;;;10.95;6.28;;;;;;;13.04;70.24;101227.78;1681281;84;27963;-82
2021/09/14 03:40:50;;;;;;;6.75;5.83;;;;;;;13.07;70.28;101228.17;1698926;83;21385;-82
2021/09/14 03:43:18;;;;;;;6.92;5.72;;;;;;;13.06;70.33;101223.86;1684852;83;26521;-82
2021/09/14 03:45:47;;;;;;;10.43;5.85;;;;;;;13.06;70.36;101222.12;1702720;82;21036;-82
2021/09/14 03:48:14;;;;;;;5.97;4.95;;;;;;;13.08;70.40;101219.50;1709722;83;20980;-82
2021/09/14 03:50:42;;;;;;;9.23;6.08;;;;;;;13.11;70.43;101225.94;1684701;83;21035;-82
2021/09/14 03:53:08;;;;;;;6.80;5.58;;;;;;;13.13;70.42;101230.23;1681415;83;21393;-82
2021/09/14 03:55:35;;;;;;;8.88;6.20;;;;;;;13.14;70.49;101228.05;1681213;84;21039;-82
2021/09/14 03:58:06;;;;;;;7.37;5.80;;;;;;;13.15;70.51;101223.27;1694817;83;21131;-82
2021/09/14 04:00:32;;;;;;;;;;;;;;;13.16;70.55;101223.72;1686760;82;20972;-82
2021/09/14 04:03:06;;;;;;;7.62;4.75;;;;;;;13.16;70.89;101222.86;1711327;82;20270;-82
2021/09/14 04:05:37;;;;;;;7.80;5.17;;;;;;;13.18;70.67;101224.98;1686653;83;21036;-81
2021/09/14 04:10:50;;;;;;;6.45;5.22;;;;;;;13.22;70.71;101224.91;1700232;83;21037;-84
2021/09/14 04:13:16;;;;;;;8.78;6.05;;;;;;;13.25;70.75;101224.86;1691400;82;21044;-85
2021/09/14 04:15:42;;;;;;;7.78;5.33;;;;;;;13.28;70.78;101227.84;1681871;83;21104;-82
2021/09/14 04:18:10;;;;;;;6.45;5.40;;;;;;;13.29;70.81;101229.56;1698419;83;21071;-82
2021/09/14 04:20:37;;;;;;;5.90;5.28;;;;;;;13.33;70.86;101235.56;1709797;83;22232;-82
2021/09/14 04:23:06;;;;;;;9.23;5.05;;;;;;;13.34;70.82;101234.67;1709691;82;21044;-82
2021/09/14 04:25:33;;;;;;;10.20;5.70;;;;;;;13.34;70.83;101229.48;1700252;82;21056;-83
2021/09/14 04:27:59;;;;;;;9.75;6.20;;;;;;;13.34;70.92;101238.13;1702253;82;21135;-83
2021/09/14 04:30:25;;;;;;;7.25;6.55;;;;;;;13.36;70.96;101230.31;1704642;83;21017;-83
2021/09/14 04:32:52;;;;;;;6.65;5.53;;;;;;;13.39;70.97;101242.80;1701301;82;21635;-84
2021/09/14 04:35:18;;;;;;;7.72;6.45;;;;;;;13.40;70.96;101241.92;1681602;81;21352;-84
2021/09/14 04:37:47;;;;;;;11.05;7.37;;;;;;;13.39;70.98;101240.20;1691193;83;20985;-84
2021/09/14 04:40:13;;;;;;;8.18;7.37;;;;;;;13.39;71.03;101245.41;1681021;84;21020;-84
2021/09/14 04:42:41;;;;;;;7.37;6.00;;;;;;;13.41;71.08;101239.73;1680747;85;21299;-84
2021/09/14 04:45:08;;;;;;;7.90;6.30;;;;;;;13.42;71.10;101245.80;1681256;84;21035;-84
2021/09/14 04:47:35;;;;;;;8.30;7.50;;;;;;;13.44;71.16;101246.63;1689434;83;21064;-84
2021/09/14 04:50:01;;;;;;;8.60;7.22;;;;;;;13.44;71.12;101246.63;1709746;83;21020;-84
2021/09/14 04:52:27;;;;;;;11.38;7.30;;;;;;;13.43;71.18;101248.36;1709767;83;21123;-84
2021/09/14 04:54:54;;;;;;;13.72;9.55;;;;;;;13.46;71.29;101252.65;1697006;83;21028;-84
2021/09/14 04:57:20;;;;;;;8.23;6.75;;;;;;;13.48;71.31;101249.58;1697849;83;21005;-84
2021/09/14 04:59:47;;;;;;;7.00;5.55;;;;;;;13.50;71.35;101251.27;1682233;83;21108;-84
2021/09/14 05:02:15;;;;;;;6.37;5.70;;;;;;;13.52;71.35;101248.17;1692124;82;21099;-84
2021/09/14 05:04:42;;;;;;;7.22;6.53;;;;;;;13.55;71.41;101252.02;1704857;82;21084;-84
2021/09/14 05:07:08;;;;;;;9.08;7.05;;;;;;;13.59;71.44;101257.56;1693974;83;21024;-84
2021/09/14 05:09:34;;;;;;;8.83;7.47;;;;;;;13.62;71.46;101259.26;1694961;82;21005;-84
2021/09/14 05:12:01;;;;;;;8.00;5.78;;;;;;;13.65;71.48;101257.05;1697346;83;20996;-84
2021/09/14 05:14:27;;;;;;;6.53;5.65;;;;;;;13.66;71.50;101251.81;1688276;83;21408;-84
2021/09/14 05:17:00;;;;;;;8.28;5.40;;;;;;;13.70;71.52;101250.02;1681109;83;21385;-84
2021/09/14 05:19:37;;;;;;;;;;;;;;;13.72;71.57;101257.34;1683776;84;21047;-84
2021/09/14 05:22:09;;;;;;;9.05;5.80;;;;;;;13.74;71.93;101253.84;1702685;83;20173;-84
2021/09/14 05:24:35;;;;;;;11.00;6.30;;;;;;;13.78;71.66;101253.34;1701776;83;21326;-84
2021/09/14 05:27:02;;;;;;;8.05;5.78;;;;;;;13.81;71.68;101252.84;1709738;83;21095;-84
2021/09/14 05:29:34;;;;;;;10.68;6.08;;;;;;;13.84;71.70;101248.88;1709659;83;21391;-84
2021/09/14 05:32:01;;;;;;;11.20;6.10;;;;;;;13.90;71.73;101251.80;1709944;83;20976;-84
2021/09/14 05:34:27;;;;;;;7.22;5.78;;;;;;;13.95;71.77;101250.41;1691318;82;21476;-84
2021/09/14 05:36:53;;;;;;;12.98;6.53;;;;;;;14.00;71.83;101251.18;1692049;83;21023;-84
2021/09/14 05:39:21;;;;;;;7.05;6.35;;;;;;;14.05;71.86;101256.67;1708632;83;21024;-84
2021/09/14 05:41:48;;;;;;;12.28;6.62;;;;;;;14.13;71.92;101253.91;1709496;83;21472;-84
2021/09/14 05:44:18;;;;;;;11.00;6.55;;;;;;;14.20;71.95;101253.77;1688293;83;21095;-84
2021/09/14 05:46:44;;;;;;;5.97;5.47;;;;;;;14.28;71.98;101252.30;1695933;83;21066;-84
2021/09/14 05:49:11;;;;;;;5.95;5.22;;;;;;;14.38;72.00;101250.36;1698373;84;21009;-84
2021/09/14 05:51:37;;;;;;;6.85;5.37;;;;;;;14.47;72.05;101252.36;1696628;83;21136;-84
2021/09/14 05:54:03;;;;;;;7.58;5.47;;;;;;;14.55;72.05;101253.05;1700601;83;21033;-84
2021/09/14 05:56:33;;;;;;;10.93;5.87;;;;;;;14.64;72.10;101249.80;1709511;82;21040;-84
2021/09/14 05:59:00;;;;;;;6.40;5.20;;;;;;;14.72;72.12;101255.24;1709665;83;21013;-84
2021/09/14 06:01:29;;;;;;;6.45;4.85;;;;;;;14.78;72.10;101249.89;1710213;82;21080;-84
2021/09/14 06:03:55;;;;;;;6.90;5.90;;;;;;;14.86;72.17;101247.11;1710554;82;25690;-84
2021/09/14 06:06:22;;;;;;;7.78;6.20;;;;;;;14.95;72.20;101250.80;1681278;83;24689;-84
2021/09/14 06:08:49;;;;;;;9.93;6.12;;;;;;;15.05;72.20;101255.35;1692948;83;21638;-84
2021/09/14 06:11:15;;;;;;;6.37;5.62;;;;;;;15.13;72.23;101254.69;1705538;82;21095;-84
2021/09/14 06:13:42;;;;;;;23.35;6.60;;;;;;;15.24;72.17;101261.80;1702880;83;21116;-84
2021/09/14 06:16:09;;;;;;;11.75;6.85;;;;;;;15.34;72.31;101261.97;1692719;83;21091;-84
2021/09/14 06:18:35;;;;;;;9.58;6.30;;;;;;;15.45;72.36;101262.55;1704733;83;21004;-84
2021/09/14 06:21:01;;;;;;;6.87;5.97;;;;;;;15.66;72.51;101265.05;1709769;83;21544;-84
2021/09/14 06:23:28;;;;;;;9.63;6.03;;;;;;;15.82;72.38;101261.14;1709789;83;21108;-84
2021/09/14 06:25:55;;;;;;;15.72;6.62;;;;;;;15.96;72.38;101258.60;1696006;83;21100;-84
2021/09/14 06:28:21;;;;;;;6.90;5.83;;;;;;;16.10;72.41;101260.37;1689603;83;20964;-84
2021/09/14 06:30:48;;;;;;;7.03;5.30;;;;;;;16.25;72.44;101252.08;1682239;83;21043;-84
2021/09/14 06:33:20;;;;;;;9.75;6.12;;;;;;;16.44;72.40;101257.62;1708672;82;21036;-84
2021/09/14 06:35:46;;;;;;;9.43;5.30;;;;;;;16.58;72.36;101259.81;1739264;81;21080;-84
2021/09/14 06:38:13;;;;;;;8.90;5.80;;;;;;;16.68;72.27;101256.87;1696911;82;21024;-84
2021/09/14 06:40:39;;;;;;;7.42;5.42;;;;;;;16.78;72.29;101263.52;1704489;83;21003;-84
2021/09/14 06:43:05;;;;;;;8.78;6.20;;;;;;;16.87;72.31;101260.63;1681116;83;21040;-84
2021/09/14 06:45:32;;;;;;;7.00;5.50;;;;;;;16.98;72.28;101269.88;1681119;83;21044;-84
2021/09/14 06:47:58;;;;;;;8.43;5.92;;;;;;;17.06;72.26;101271.34;1693779;83;21638;-84
2021/09/14 06:50:24;;;;;;;11.18;6.30;;;;;;;17.16;72.26;101277.09;1681228;84;21107;-84
2021/09/14 06:52:51;;;;;;;8.23;5.62;;;;;;;17.25;72.28;101274.64;1680996;84;21056;-84
2021/09/14 06:55:17;;;;;;;6.78;5.58;;;;;;;17.34;72.23;101272.58;1681823;83;21104;-84
2021/09/14 06:57:44;;;;;;;8.03;5.83;;;;;;;17.43;72.17;101274.03;1680884;83;21020;-84
2021/09/14 07:00:11;;;;;;;7.35;5.67;;;;;;;17.54;72.16;101274.06;1693471;82;21036;-84
2021/09/14 07:02:40;;;;;;;8.35;4.65;;;;;;;17.61;72.06;101270.78;1716521;82;21398;-83
2021/09/14 07:05:11;;;;;;;9.43;5.03;;;;;;;17.62;71.90;101273.80;1680770;84;21088;-83
2021/09/14 07:07:37;;;;;;;;;;;;;;;17.63;72.01;101271.59;1700396;82;21130;-84
2021/09/14 07:10:05;;;;;;;7.45;4.35;;;;;;;17.73;71.81;101272.98;1681285;83;20215;-84
2021/09/14 07:12:41;;;;;;;8.73;4.65;;;;;;;17.78;71.96;101272.36;1681447;83;21052;-84
2021/09/14 07:15:10;;;;;;;9.53;4.25;;;;;;;17.86;71.87;101272.95;1703173;83;21065;-84
2021/09/14 07:17:37;;;;;;;10.72;4.40;;;;;;;17.92;71.88;101275.80;1681532;83;21091;-84
2021/09/14 07:20:09;;;;;;;8.80;4.03;;;;;;;17.97;71.82;101280.87;1701866;83;21075;-84
2021/09/14 07:22:36;;;;;;;7.67;3.95;;;;;;;18.03;71.79;101279.34;1709689;83;21088;-84
2021/09/14 07:25:03;;;;;;;;;;;;;;;18.12;71.75;101281.63;1712373;83;21052;-84
2021/09/14 07:27:35;;;;;;;6.58;3.15;;;;;;;18.22;71.36;101284.73;1699651;82;20422;-84
2021/09/14 07:30:02;;;;;;;9.40;3.40;;;;;;;18.23;71.62;101291.22;1707162;83;21051;-84
2021/09/14 07:32:28;;;;;;;11.57;3.90;;;;;;;18.25;71.54;101294.63;1713576;82;21087;-84
2021/09/14 07:34:54;;;;;;;10.05;3.10;;;;;;;18.32;71.53;101293.50;1727026;81;21095;-84
2021/09/14 07:37:21;;;;;;;7.90;3.10;;;;;;;18.35;71.36;101298.63;1707827;82;21026;-84
2021/09/14 07:39:47;;;;;;;5.85;3.55;;;;;;;18.38;71.33;101293.73;1709875;83;21035;-84
2021/09/14 07:42:13;;;;;;;10.43;2.90;;;;;;;18.41;71.30;101297.54;1709694;83;21067;-84
2021/09/14 07:44:40;;;;;;;8.25;2.92;;;;;;;18.42;71.20;101297.94;1697340;83;20940;-84
2021/09/14 07:47:06;;;;;;;7.20;2.72;;;;;;;18.45;71.10;101299.13;1681176;83;20976;-84
2021/09/14 07:49:33;;;;;;;6.20;2.77;;;;;;;18.45;71.10;101299.13;1704350;83;21072;-83
2021/09/14 07:51:59;;;;;;;10.38;3.35;;;;;;;18.52;71.08;101303.23;1702469;83;20940;-83
2021/09/14 07:54:26;;;;;;;6.00;2.37;;;;;;;18.60;70.94;101297.28;1709698;83;21008;-84
2021/09/14 07:56:53;;;;;;;8.13;2.60;;;;;;;18.65;70.77;101303.20;1708010;83;27603;-83
2021/09/14 07:59:19;;;;;;;5.40;2.72;;;;;;;18.73;70.78;101296.31;1698106;83;21031;-83
2021/09/14 08:01:58;;;;;;;4.17;2.58;;;;;;;18.83;70.64;101297.21;1702210;83;21056;-84
2021/09/14 08:04:24;;;;;;;6.47;2.52;;;;;;;18.93;70.63;101299.02;1698687;82;21174;-84
2021/09/14 08:06:51;;;;;;;6.70;2.70;;;;;;;19.09;70.58;101297.48;1698055;83;21258;-84
2021/09/14 08:09:18;;;;;;;6.58;2.58;;;;;;;19.23;70.47;101297.39;1699211;83;21139;-84
2021/09/14 08:11:44;;;;;;;7.15;2.72;;;;;;;19.36;70.36;101301.18;1697209;82;21037;-84
2021/09/14 08:14:12;;;;;;;6.90;2.70;;;;;;;19.57;70.22;101296.84;1696943;83;20997;-84
2021/09/14 08:16:39;;;;;;;5.20;2.05;;;;;;;19.76;70.18;101299.90;1700868;82;21064;-84
2021/09/14 08:19:05;;;;;;;6.90;2.40;;;;;;;19.84;70.10;101304.36;1709288;83;21016;-84
2021/09/14 08:21:31;;;;;;;6.37;2.50;;;;;;;19.97;70.09;101302.52;1709512;83;21020;-84
2021/09/14 08:23:58;;;;;;;5.55;2.40;;;;;;;20.11;70.11;101304.07;1693915;83;21098;-84
2021/09/14 08:26:24;;;;;;;6.62;2.80;;;;;;;20.25;69.78;101299.05;1703009;82;21036;-84
2021/09/14 08:28:51;;;;;;;6.95;2.52;;;;;;;20.27;69.66;101297.22;1709503;83;21088;-84
2021/09/14 08:31:22;;;;;;;3.37;2.47;;;;;;;20.28;69.52;101299.34;1689302;83;20973;-84
2021/09/14 08:33:48;;;;;;;4.30;2.10;;;;;;;20.23;69.40;101300.90;1705302;82;21415;-84
2021/09/14 08:36:15;;;;;;;6.35;2.30;;;;;;;20.14;69.29;101301.31;1709563;83;21285;-84
2021/09/14 08:38:41;;;;;;;6.03;2.02;;;;;;;20.13;69.32;101307.02;1698330;83;21068;-84
2021/09/14 08:41:07;;;;;;;8.20;2.30;;;;;;;20.23;69.40;101314.48;1708743;83;21027;-84
2021/09/14 08:43:37;;;;;;;4.35;2.12;;;;;;;20.32;69.00;101300.45;1709532;83;21008;-84
2021/09/14 08:46:02;;;;;;;4.97;2.72;;;;;;;20.24;68.91;101299.98;1706553;83;21004;-84
2021/09/14 08:48:28;;;;;;;4.47;2.40;;;;;;;20.16;68.69;101306.89;1695768;83;21043;-84
2021/09/14 08:50:55;;;;;;;9.15;2.70;;;;;;;20.11;68.73;101302.76;1698977;83;21012;-84
2021/09/14 08:53:21;;;;;;;3.30;2.35;;;;;;;20.09;68.61;101307.22;1707188;83;21541;-84
2021/09/14 08:55:47;;;;;;;5.55;2.37;;;;;;;20.04;68.43;101306.11;1685706;83;21052;-84
2021/09/14 08:58:14;;;;;;;5.87;2.85;;;;;;;19.95;68.26;101297.79;1705778;83;21048;-84
2021/09/14 09:00:42;;;;;;;5.58;2.75;;;;;;;19.87;68.23;101298.58;1703496;83;20924;-84
2021/09/14 09:03:08;;;;;;;;;;;;;;;19.77;68.03;101298.98;1712056;82;22267;-84
2021/09/14 09:05:40;;;;;;;3.87;2.30;;;;;;;19.66;67.42;101302.55;1668684;85;20191;-84
2021/09/14 09:08:28;;;;;;;10.30;2.77;;;;;;;19.59;67.88;101298.48;1614108;87;21062;-84
2021/09/14 09:11:11;;;;;;;7.08;2.85;;;;;;;19.55;67.76;101296.91;1651489;86;21492;-83
2021/09/14 09:13:48;;;;;;;4.95;2.30;;;;;;;19.49;67.64;101302.38;1652265;85;21082;-83
2021/09/14 09:16:28;;;;;;;4.85;2.60;;;;;;;19.52;67.65;101302.75;1691993;83;21623;-83
2021/09/14 09:18:58;;;;;;;5.40;2.20;;;;;;;19.48;67.35;101302.84;1707738;82;21083;-84
2021/09/14 09:21:39;;;;;;;6.00;2.70;;;;;;;19.49;67.36;101303.69;1691817;83;21455;-84
2021/09/14 09:24:13;;;;;;;3.17;2.42;;;;;;;19.48;67.13;101305.92;1684904;83;21103;-84
2021/09/14 09:26:43;;;;;;;5.80;2.33;;;;;;;19.45;67.10;101312.14;1696049;83;22022;-84
2021/09/14 09:29:13;;;;;;;8.43;2.85;;;;;;;19.46;67.11;101311.23;1689246;83;21043;-84
2021/09/14 09:31:47;;;;;;;4.33;2.40;;;;;;;19.53;67.00;101309.23;1693392;83;21096;-84
2021/09/14 09:34:13;;;;;;;4.10;2.42;;;;;;;19.51;66.77;101312.38;1734674;82;22117;-84
2021/09/14 09:36:44;;;;;;;4.53;2.40;;;;;;;19.49;66.79;101313.73;1718078;82;21060;-84
2021/09/14 09:39:15;;;;;;;5.92;2.42;;;;;;;19.48;66.61;101314.64;1722028;82;21044;-84
2021/09/14 09:41:54;;;;;;;5.08;2.40;;;;;;;19.47;66.55;101308.15;1717292;82;21457;-84
2021/09/14 09:44:21;;;;;;;4.85;2.45;;;;;;;19.46;66.42;101307.75;1690129;83;21386;-84
2021/09/14 09:46:54;;;;;;;;;;;;;;;19.40;66.25;101304.08;1711263;83;21492;-84
2021/09/14 09:49:24;;;;;;;8.38;2.37;;;;;;;19.31;65.85;101308.38;1706266;82;20654;-84
2021/09/14 09:51:51;;;;;;;3.10;2.52;;;;;;;19.26;66.18;101306.41;1710284;82;21449;-84
2021/09/14 09:54:19;;;;;;;2.98;2.10;;;;;;;19.23;66.12;101311.35;1710448;83;20912;-84
2021/09/14 09:56:45;;;;;;;7.60;2.60;;;;;;;19.23;66.01;101306.56;1714918;82;21853;-84
2021/09/14 09:59:13;;;;;;;9.53;2.27;;;;;;;19.22;65.96;101307.48;1723858;82;21410;-84
2021/09/14 10:01:43;;;;;;;3.87;2.20;;;;;;;19.22;65.85;101310.10;1723794;82;21127;-84
2021/09/14 10:04:21;;;;;;;5.42;2.47;;;;;;;19.21;65.86;101301.38;1727597;81;21381;-85
2021/09/14 10:06:50;;;;;;;7.55;2.30;;;;;;;19.26;65.83;101302.47;1727272;82;21418;-84
2021/09/14 10:09:20;;;;;;;5.05;2.77;;;;;;;19.30;65.68;101300.12;1725091;82;20936;-84
2021/09/14 10:11:56;;;;;;;4.00;2.83;;;;;;;19.35;65.65;101299.48;1730963;82;21567;-84
2021/09/14 10:14:24;;;;;;;6.53;2.42;;;;;;;19.42;65.56;101299.16;1729756;82;21461;-84
2021/09/14 10:16:50;;;;;;;;;;;;;;;19.46;65.51;101290.70;1729564;82;21532;-84
2021/09/14 10:19:31;;;;;;;9.98;2.60;;;;;;;19.57;65.13;101299.01;1731789;81;20548;-84
2021/09/14 10:22:10;;;;;;;5.87;2.92;;;;;;;19.68;65.38;101295.47;1722385;82;21776;-84
2021/09/14 10:24:37;;;;;;;6.08;2.70;;;;;;;19.72;65.18;101298.81;1727610;82;20916;-84
2021/09/14 10:27:13;;;;;;;7.42;2.95;;;;;;;19.70;65.12;101296.26;1732808;81;21515;-84
2021/09/14 10:29:41;;;;;;;4.70;2.25;;;;;;;19.76;65.24;101292.03;1725837;82;21043;-84
2021/09/14 10:32:11;;;;;;;5.87;2.95;;;;;;;19.85;65.14;101285.53;1722012;83;21078;-84
2021/09/14 10:34:42;;;;;;;4.60;2.33;;;;;;;19.95;64.96;101288.60;1710831;83;21545;-84
2021/09/14 10:37:12;;;;;;;4.40;2.45;;;;;;;19.96;64.92;101291.16;1731605;81;21051;-84
2021/09/14 10:39:43;;;;;;;6.10;2.52;;;;;;;20.03;64.92;101289.12;1729510;81;21027;-84
2021/09/14 10:42:22;;;;;;;5.00;2.75;;;;;;;20.11;64.90;101283.92;1733700;81;21524;-84
2021/09/14 10:44:52;;;;;;;4.47;2.58;;;;;;;20.17;64.75;101282.79;1719651;81;21023;-84
2021/09/14 10:47:21;;;;;;;5.97;2.52;;;;;;;20.23;64.62;101274.64;1726481;82;21035;-84
2021/09/14 10:50:04;;;;;;;8.38;2.70;;;;;;;20.24;64.53;101281.59;1727858;83;21322;-84
2021/09/14 10:52:42;;;;;;;7.47;2.90;;;;;;;20.25;64.51;101279.36;1726955;83;20944;-84
2021/09/14 10:55:16;;;;;;;7.05;2.67;;;;;;;20.25;64.38;101271.94;1716785;83;21459;-84
2021/09/14 10:57:51;;;;;;;6.22;2.47;;;;;;;20.32;64.42;101275.96;1715998;83;20927;-84
2021/09/14 11:00:27;;;;;;;7.25;2.45;;;;;;;20.38;64.29;101277.02;1709538;83;21520;-84
2021/09/14 11:02:57;;;;;;;6.70;2.42;;;;;;;20.46;64.26;101278.38;1718086;82;22361;-84
2021/09/14 11:05:29;;;;;;;6.50;2.42;;;;;;;20.54;64.10;101274.08;1697133;81;21567;-84
2021/09/14 11:08:01;;;;;;;8.13;2.45;;;;;;;20.53;63.95;101274.15;1684026;83;21141;-84
2021/09/14 11:10:39;;;;;;;4.78;2.00;;;;;;;20.51;63.92;101278.63;1680901;85;21033;-84
2021/09/14 11:13:06;;;;;;;7.25;2.60;;;;;;;20.54;63.93;101271.45;1697273;83;21111;-84
2021/09/14 11:15:41;;;;;;;;;;;;;;;20.62;63.83;101275.89;1712063;83;21008;-84
2021/09/14 11:18:08;;;;;;;5.75;2.70;;;;;;;20.67;63.31;101275.67;1702579;83;20227;-84
2021/09/14 11:20:36;;;;;;;7.67;2.52;;;;;;;20.72;63.61;101274.53;1681286;83;21524;-84
2021/09/14 11:23:04;;;;;;;5.67;2.20;;;;;;;20.72;63.54;101276.30;1681130;83;20929;-84
2021/09/14 11:25:30;;;;;;;4.65;2.70;;;;;;;20.77;63.50;101273.84;1681104;83;20980;-84
2021/09/14 11:28:11;;;;;;;5.85;2.40;;;;;;;20.82;63.48;101269.65;1684717;83;21914;-84
2021/09/14 11:30:39;;;;;;;3.50;2.40;;;;;;;20.85;63.24;101264.25;1686575;82;21414;-84
2021/09/14 11:33:07;;;;;;;6.45;3.83;;;;;;;20.82;63.15;101268.34;1703492;82;21041;-84
2021/09/14 11:35:36;;;;;;;4.62;2.90;;;;;;;20.82;63.12;101270.97;1699175;82;21047;-84
2021/09/14 11:38:09;;;;;;;3.85;2.37;;;;;;;20.82;63.06;101274.45;1690030;83;21052;-84
2021/09/14 11:40:46;;;;;;;2.77;2.00;;;;;;;20.88;63.00;101266.73;1699942;83;20922;-84
2021/09/14 11:43:19;;;;;;;4.05;2.60;;;;;;;20.93;62.87;101263.87;1701347;83;20910;-83
2021/09/14 11:45:45;;;;;;;4.65;2.37;;;;;;;20.95;62.82;101262.88;1694675;83;20940;-83
2021/09/14 11:48:20;;;;;;;6.10;2.95;;;;;;;20.96;62.74;101264.58;1710950;83;21318;-83
2021/09/14 11:50:49;;;;;;;4.47;2.50;;;;;;;21.03;62.73;101260.72;1710349;83;20874;-83
2021/09/14 11:53:22;;;;;;;4.28;3.00;;;;;;;21.10;62.61;101262.12;1708979;83;20901;-83
2021/09/14 11:55:51;;;;;;;3.90;2.70;;;;;;;21.14;62.56;101264.14;1699494;83;20877;-83
2021/09/14 11:58:35;;;;;;;3.50;2.33;;;;;;;21.15;62.36;101260.59;1704728;83;20938;-84
2021/09/14 12:01:08;;;;;;;3.52;2.17;;;;;;;21.13;62.37;101263.30;1682151;83;20930;-84
2021/09/14 12:03:48;;;;;;;5.40;3.12;;;;;;;21.14;62.33;101261.52;1700988;82;20931;-84
2021/09/14 12:06:32;;;;;;;5.10;2.50;;;;;;;21.14;62.19;101259.73;1687433;83;20842;-84
2021/09/14 12:09:02;;;;;;;3.27;2.47;;;;;;;21.15;62.14;101260.59;1684695;83;20917;-84
2021/09/14 12:11:34;;;;;;;3.72;2.08;;;;;;;21.17;62.06;101252.62;1694628;83;21421;-84
2021/09/14 12:14:04;;;;;;;2.65;2.05;;;;;;;21.19;61.98;101254.25;1685363;82;20881;-84
2021/09/14 12:16:36;;;;;;;5.28;2.40;;;;;;;21.21;61.95;101255.48;1701356;83;21041;-84
2021/09/14 12:19:00;;;;;;;4.15;2.40;;;;;;;21.21;61.85;101262.95;1687364;83;21112;-84
2021/09/14 12:21:27;;;;;;;3.95;2.50;;;;;;;21.17;61.71;101260.05;1708745;83;21335;-84
2021/09/14 12:23:56;;;;;;;3.30;2.12;;;;;;;21.11;61.52;101261.20;1709481;83;20886;-84